Time;durP1;ratioP1;P1;durP2;ratioP2;P2;SDS_P1;SDS_P2;PMS_P1;PMS_P2;Temp;Humidity;BMP_temperature;BMP_pressure;BME280_temperature;BME280_humidity;BME280_pressure;Samples;Min_cycle;Max_cycle;Signal;HPM_P1;HPM_P2
2021/05/07 00:01:44;;;;;;;12.60;10.52;;;5.90;95.60;;;;;;6215128;23;20005;-66
2021/05/07 00:04:11;;;;;;;16.25;11.48;;;5.90;95.60;;;;;;6212822;23;20004;-67
2021/05/07 00:06:36;;;;;;;22.15;11.52;;;5.90;95.60;;;;;;6215381;23;20043;-66
2021/05/07 00:09:05;;;;;;;16.08;10.77;;;5.90;95.40;;;;;;6215072;23;20005;-66
2021/05/07 00:11:33;;;;;;;15.02;10.65;;;5.90;95.30;;;;;;6214203;23;20358;-66
2021/05/07 00:13:59;;;;;;;11.70;10.25;;;5.90;95.30;;;;;;6214901;23;20032;-67
2021/05/07 00:16:26;;;;;;;12.68;10.02;;;5.80;95.30;;;;;;6214315;23;20327;-66
2021/05/07 00:18:53;;;;;;;11.95;9.40;;;5.70;95.40;;;;;;6213471;23;19997;-66
2021/05/07 00:21:19;;;;;;;13.13;10.10;;;5.70;95.50;;;;;;6213594;23;20047;-66
2021/05/07 00:23:44;;;;;;;13.85;9.23;;;5.60;95.60;;;;;;6213901;23;20001;-66
2021/05/07 00:26:11;;;;;;;12.95;10.48;;;5.50;95.70;;;;;;6215257;23;20076;-67
2021/05/07 00:28:37;;;;;;;13.90;9.90;;;5.50;95.70;;;;;;6214897;23;20011;-67
2021/05/07 00:31:03;;;;;;;11.10;9.38;;;5.50;95.70;;;;;;6214182;23;20001;-67
2021/05/07 00:33:29;;;;;;;11.75;9.65;;;5.40;95.80;;;;;;6215139;23;20005;-66
2021/05/07 00:35:55;;;;;;;13.00;10.27;;;5.30;95.80;;;;;;6214803;23;20337;-66
2021/05/07 00:38:20;;;;;;;12.82;10.23;;;5.30;95.90;;;;;;6214556;23;20414;-66
2021/05/07 00:40:46;;;;;;;11.57;9.10;;;5.30;95.90;;;;;;6214850;23;20008;-65
2021/05/07 00:43:11;;;;;;;11.07;9.60;;;5.20;95.90;;;;;;6214844;23;20007;-66
2021/05/07 00:45:37;;;;;;;11.85;10.02;;;5.20;96.00;;;;;;6213754;23;20017;-66
2021/05/07 00:48:06;;;;;;;11.15;9.15;;;5.20;96.00;;;;;;6214843;23;20490;-66
2021/05/07 00:50:36;;;;;;;14.32;9.98;;;5.20;96.00;;;;;;6214675;23;20007;-66
2021/05/07 00:53:03;;;;;;;13.07;9.70;;;5.10;96.00;;;;;;6214003;23;20055;-66
2021/05/07 00:55:32;;;;;;;14.23;11.07;;;5.10;96.00;;;;;;6214757;23;20009;-67
2021/05/07 00:57:57;;;;;;;14.80;10.50;;;5.00;96.00;;;;;;6213312;23;20051;-66
2021/05/07 01:00:24;;;;;;;12.57;10.02;;;5.00;96.10;;;;;;6214007;23;20008;-66
2021/05/07 01:02:50;;;;;;;13.73;10.52;;;5.00;96.10;;;;;;6214968;23;20177;-66
2021/05/07 01:05:16;;;;;;;13.38;11.13;;;4.90;96.10;;;;;;6215598;23;20358;-65
2021/05/07 01:07:42;;;;;;;11.50;10.30;;;4.90;96.10;;;;;;6213783;23;20079;-65
2021/05/07 01:10:10;;;;;;;16.48;10.25;;;4.90;96.20;;;;;;6214887;23;20000;-66
2021/05/07 01:12:37;;;;;;;14.77;11.52;;;4.80;96.10;;;;;;6214499;23;20007;-66
2021/05/07 01:15:29;;;;;;;14.32;10.75;;;4.80;96.20;;;;;;6214088;23;20012;-66
2021/05/07 01:17:57;;;;;;;13.07;10.35;;;4.80;96.30;;;;;;6208859;23;20004;-66
2021/05/07 01:20:28;;;;;;;11.60;10.00;;;4.80;96.40;;;;;;6214059;23;20333;-66
2021/05/07 01:23:08;;;;;;;14.15;10.52;;;4.80;96.40;;;;;;6214846;23;20028;-65
2021/05/07 01:25:37;;;;;;;13.98;11.98;;;4.80;96.40;;;;;;6212832;23;20329;-65
2021/05/07 01:28:06;;;;;;;14.48;10.77;;;4.70;96.40;;;;;;6214029;23;20464;-66
2021/05/07 01:30:34;;;;;;;12.35;10.20;;;4.70;96.40;;;;;;6214775;23;20306;-65
2021/05/07 01:33:00;;;;;;;13.82;11.07;;;4.60;96.40;;;;;;6212815;23;20050;-65
2021/05/07 01:35:28;;;;;;;12.38;11.10;;;4.60;96.40;;;;;;6212134;23;20031;-65
2021/05/07 01:38:00;;;;;;;12.68;10.85;;;4.60;96.40;;;;;;6214508;23;20001;-66
2021/05/07 01:40:28;;;;;;;14.63;10.70;;;4.50;96.40;;;;;;6215102;23;20054;-66
2021/05/07 01:42:55;;;;;;;13.30;11.40;;;4.50;96.40;;;;;;6213484;23;20005;-66
2021/05/07 01:45:27;;;;;;;13.85;11.35;;;4.50;96.50;;;;;;6214883;23;20007;-66
2021/05/07 01:47:53;;;;;;;;;;;4.50;96.60;;;;;;6214046;23;20068;-66
2021/05/07 01:50:24;;;;;;;13.43;12.07;;;4.40;96.60;;;;;;6214390;23;19900;-65
2021/05/07 01:52:51;;;;;;;14.05;11.77;;;4.50;96.60;;;;;;6214352;23;20420;-65
2021/05/07 01:55:22;;;;;;;11.98;10.50;;;4.50;96.60;;;;;;6213291;23;20441;-65
2021/05/07 01:57:47;;;;;;;16.70;15.00;;;4.40;96.60;;;;;;6214395;23;20057;-65
2021/05/07 02:00:19;;;;;;;15.95;13.23;;;4.40;96.70;;;;;;6216411;23;20009;-65
2021/05/07 02:02:45;;;;;;;17.27;13.30;;;4.40;96.80;;;;;;6215587;23;20032;-65
2021/05/07 02:05:12;;;;;;;13.80;11.77;;;4.40;96.80;;;;;;6216154;23;20027;-65
2021/05/07 02:07:38;;;;;;;15.88;12.88;;;4.40;96.80;;;;;;6214853;23;20028;-66
2021/05/07 02:10:09;;;;;;;14.43;11.80;;;4.30;96.90;;;;;;6213851;23;20028;-66
2021/05/07 02:12:35;;;;;;;13.93;12.43;;;4.30;96.90;;;;;;6214559;23;20434;-66
2021/05/07 02:15:00;;;;;;;13.88;12.43;;;4.30;96.90;;;;;;6214173;23;20020;-66
2021/05/07 02:17:26;;;;;;;15.65;11.57;;;4.30;96.90;;;;;;6214083;23;20433;-66
2021/05/07 02:19:51;;;;;;;15.95;11.43;;;4.30;97.00;;;;;;6216100;23;20083;-67
2021/05/07 02:22:17;;;;;;;15.68;12.63;;;4.30;96.90;;;;;;6216241;23;20024;-65
2021/05/07 02:24:42;;;;;;;14.25;12.70;;;4.30;97.00;;;;;;6215436;23;20032;-66
2021/05/07 02:27:09;;;;;;;15.63;12.80;;;4.30;97.00;;;;;;6216116;23;20513;-65
2021/05/07 02:29:34;;;;;;;15.10;13.45;;;4.20;96.90;;;;;;6215987;23;20004;-66
2021/05/07 02:32:00;;;;;;;15.52;12.70;;;4.20;96.90;;;;;;6215188;23;20072;-66
2021/05/07 02:34:25;;;;;;;12.98;11.68;;;4.20;96.90;;;;;;6216130;23;20095;-66
2021/05/07 02:36:51;;;;;;;15.20;12.38;;;4.20;97.00;;;;;;6215812;23;20005;-66
2021/05/07 02:39:16;;;;;;;15.82;13.25;;;4.10;97.00;;;;;;6215040;23;20005;-66
2021/05/07 02:41:43;;;;;;;14.00;12.50;;;4.20;97.00;;;;;;6215851;23;20008;-66
2021/05/07 02:44:09;;;;;;;14.27;12.25;;;4.20;97.00;;;;;;6215344;23;20003;-65
2021/05/07 02:46:36;;;;;;;14.68;11.10;;;4.20;97.00;;;;;;6215808;23;20009;-66
2021/05/07 02:49:03;;;;;;;13.45;12.05;;;4.30;97.00;;;;;;6215985;23;19997;-66
2021/05/07 02:51:30;;;;;;;13.00;11.70;;;4.40;97.10;;;;;;6215417;23;20082;-65
2021/05/07 02:53:56;;;;;;;16.08;13.18;;;4.40;97.00;;;;;;6215722;23;20008;-66
2021/05/07 02:56:22;;;;;;;15.88;12.98;;;4.50;97.20;;;;;;6214647;23;20012;-65
2021/05/07 02:58:47;;;;;;;14.90;13.05;;;4.60;97.20;;;;;;6214914;23;20405;-66
2021/05/07 03:01:13;;;;;;;15.65;12.77;;;4.70;97.20;;;;;;6216089;23;20441;-66
2021/05/07 03:03:39;;;;;;;16.20;12.10;;;4.80;97.10;;;;;;6215848;23;20054;-65
2021/05/07 03:06:04;;;;;;;15.07;11.90;;;4.90;97.10;;;;;;6214890;23;20004;-66
2021/05/07 03:08:31;;;;;;;12.73;11.20;;;5.00;96.90;;;;;;6216294;23;20004;-66
2021/05/07 03:10:57;;;;;;;17.92;12.65;;;5.10;97.00;;;;;;6215120;23;20000;-66
2021/05/07 03:13:23;;;;;;;13.25;11.90;;;5.10;96.90;;;;;;6215102;23;20051;-66
2021/05/07 03:15:48;;;;;;;14.75;12.27;;;5.20;96.80;;;;;;6215326;23;20063;-66
2021/05/07 03:18:19;;;;;;;13.05;11.75;;;5.30;96.70;;;;;;6214037;23;20083;-66
2021/05/07 03:20:45;;;;;;;13.88;12.35;;;5.40;96.70;;;;;;6214751;23;20028;-66
2021/05/07 03:23:11;;;;;;;14.00;11.27;;;5.40;96.60;;;;;;6215586;23;20004;-66
2021/05/07 03:25:38;;;;;;;14.63;12.65;;;5.40;96.50;;;;;;6213768;23;20307;-66
2021/05/07 03:28:04;;;;;;;17.67;12.77;;;5.40;96.50;;;;;;6213213;23;20001;-66
2021/05/07 03:30:34;;;;;;;14.65;12.75;;;5.40;96.50;;;;;;6216166;23;20005;-67
2021/05/07 03:33:02;;;;;;;14.40;12.90;;;5.50;96.60;;;;;;6216133;23;20357;-67
2021/05/07 03:35:27;;;;;;;16.38;12.70;;;5.50;96.50;;;;;;6213111;23;20079;-66
2021/05/07 03:37:53;;;;;;;15.45;12.75;;;5.50;96.50;;;;;;6215369;23;20422;-66
2021/05/07 03:40:19;;;;;;;13.80;12.25;;;5.50;96.40;;;;;;6215453;23;20004;-67
2021/05/07 03:42:45;;;;;;;14.55;12.55;;;5.50;96.40;;;;;;6215496;23;20001;-66
2021/05/07 03:45:13;;;;;;;18.08;13.38;;;5.50;96.70;;;;;;6215299;23;20008;-65
2021/05/07 03:47:39;;;;;;;15.15;13.65;;;5.60;96.40;;;;;;6214760;23;20000;-66
2021/05/07 03:50:05;;;;;;;13.65;12.25;;;5.60;96.40;;;;;;6215505;23;20425;-66
2021/05/07 03:52:31;;;;;;;15.30;13.60;;;5.60;96.30;;;;;;6215334;23;20001;-66
2021/05/07 03:54:56;;;;;;;14.13;12.73;;;5.70;96.20;;;;;;6214346;23;20086;-67
2021/05/07 03:57:24;;;;;;;14.52;12.88;;;5.70;96.20;;;;;;6215535;23;20487;-67
2021/05/07 03:59:49;;;;;;;14.90;12.30;;;5.80;96.20;;;;;;6215380;23;20036;-67
2021/05/07 04:02:15;;;;;;;17.50;13.38;;;5.80;96.00;;;;;;6214748;23;20062;-66
2021/05/07 04:04:42;;;;;;;15.23;13.65;;;5.70;95.90;;;;;;6214991;23;20326;-67
2021/05/07 04:07:08;;;;;;;15.55;13.95;;;5.70;95.90;;;;;;6215297;23;20000;-66
2021/05/07 04:09:37;;;;;;;16.77;13.27;;;5.70;95.90;;;;;;6214290;23;20000;-66
2021/05/07 04:12:23;;;;;;;14.20;12.43;;;5.80;95.90;;;;;;6215402;23;20051;-67
2021/05/07 04:14:49;;;;;;;15.95;14.30;;;5.80;95.90;;;;;;6214435;23;20008;-66
2021/05/07 04:17:14;;;;;;;17.63;12.90;;;5.70;95.90;;;;;;6214464;23;20015;-66
2021/05/07 04:19:40;;;;;;;13.32;10.52;;;5.80;95.90;;;;;;6214975;23;20326;-67
2021/05/07 04:22:05;;;;;;;12.57;7.38;;;5.70;95.50;;;;;;6214818;23;20012;-67
2021/05/07 04:24:31;;;;;;;7.63;5.43;;;5.60;95.20;;;;;;6213999;23;19997;-67
2021/05/07 04:26:56;;;;;;;6.55;5.88;;;5.50;95.00;;;;;;6212927;23;20016;-68
2021/05/07 04:29:23;;;;;;;6.55;4.68;;;5.40;94.90;;;;;;6215375;23;20076;-67
2021/05/07 04:31:49;;;;;;;5.80;5.20;;;5.30;94.80;;;;;;6214188;23;20087;-67
2021/05/07 04:34:14;;;;;;;4.75;3.60;;;5.30;94.60;;;;;;6215045;23;20934;-67
2021/05/07 04:36:40;;;;;;;4.40;3.03;;;5.20;94.40;;;;;;6213812;23;20007;-66
2021/05/07 04:39:06;;;;;;;4.63;2.40;;;5.20;94.30;;;;;;6211369;23;20041;-67
2021/05/07 04:41:32;;;;;;;2.72;2.53;;;5.20;94.60;;;;;;6214572;23;20012;-69
2021/05/07 04:43:58;;;;;;;3.75;2.22;;;5.20;94.40;;;;;;6213622;23;20750;-67
2021/05/07 04:46:23;;;;;;;3.35;1.98;;;5.30;94.70;;;;;;6214244;23;20016;-68
2021/05/07 04:48:49;;;;;;;4.03;2.30;;;5.30;94.40;;;;;;6214395;23;19996;-66
2021/05/07 04:51:14;;;;;;;4.32;2.35;;;5.40;94.40;;;;;;6213784;23;20012;-66
2021/05/07 04:53:40;;;;;;;3.83;2.60;;;5.40;94.50;;;;;;6214721;23;20083;-68
2021/05/07 04:56:06;;;;;;;4.35;2.80;;;5.50;94.50;;;;;;6214324;23;20009;-67
2021/05/07 04:58:31;;;;;;;2.60;2.40;;;5.50;94.50;;;;;;6213320;23;19996;-69
2021/05/07 05:00:57;;;;;;;4.88;2.50;;;5.50;94.40;;;;;;6211200;23;20091;-67
2021/05/07 05:03:23;;;;;;;5.18;2.72;;;5.60;94.50;;;;;;6213042;23;20027;-68
2021/05/07 05:05:49;;;;;;;7.72;2.97;;;5.60;94.40;;;;;;6211101;23;20001;-66
2021/05/07 05:08:23;;;;;;;7.93;3.30;;;5.70;94.50;;;;;;6214881;23;20000;-67
2021/05/07 05:10:54;;;;;;;4.78;3.58;;;5.70;94.60;;;;;;6214345;23;20062;-66
2021/05/07 05:13:19;;;;;;;3.90;3.00;;;5.70;94.80;;;;;;6213993;23;20005;-66
2021/05/07 05:15:47;;;;;;;4.72;3.33;;;5.80;94.90;;;;;;6214241;23;20020;-67
2021/05/07 12:42:34;;;;;;;4.72;2.47;;;13.50;56.10;;;;;;6186142;22;20048;-68
2021/05/07 12:45:00;;;;;;;3.03;2.42;;;13.70;55.40;;;;;;6211915;23;20009;-72
2021/05/07 12:47:25;;;;;;;5.05;2.90;;;13.70;55.30;;;;;;6212321;23;20337;-67
2021/05/07 12:49:51;;;;;;;3.67;2.35;;;13.70;55.90;;;;;;6213085;23;20001;-69
2021/05/07 12:52:17;;;;;;;4.93;2.58;;;14.00;54.50;;;;;;6212018;23;20425;-68
2021/05/07 12:54:42;;;;;;;3.25;2.33;;;14.20;52.60;;;;;;6212046;23;20015;-70
2021/05/07 12:57:08;;;;;;;4.50;2.10;;;14.50;51.00;;;;;;6213483;23;20425;-69
2021/05/07 12:59:34;;;;;;;2.83;1.92;;;14.80;51.60;;;;;;6214089;23;20004;-67
2021/05/07 13:01:59;;;;;;;2.67;2.00;;;15.00;50.40;;;;;;6214137;23;20008;-67
2021/05/07 13:04:25;;;;;;;2.53;2.10;;;15.00;49.20;;;;;;6213395;23;20012;-68
2021/05/07 13:06:50;;;;;;;4.97;2.40;;;14.90;49.20;;;;;;6212327;23;20032;-69
2021/05/07 13:09:16;;;;;;;3.22;2.45;;;14.70;50.10;;;;;;6212530;23;20022;-68
2021/05/07 13:11:41;;;;;;;5.45;2.45;;;14.50;49.00;;;;;;6213288;23;20028;-70
2021/05/07 13:14:10;;;;;;;3.47;2.00;;;14.20;49.90;;;;;;6211911;23;20000;-69
2021/05/07 13:16:36;;;;;;;3.00;2.30;;;14.10;50.30;;;;;;6212208;23;20008;-69
2021/05/07 13:19:02;;;;;;;3.22;2.08;;;14.20;48.20;;;;;;6213177;23;20000;-69
2021/05/07 13:21:27;;;;;;;2.85;2.05;;;14.30;48.30;;;;;;6214435;23;20012;-67
2021/05/07 13:23:53;;;;;;;5.13;2.05;;;14.20;47.10;;;;;;6213800;23;20005;-69
2021/05/07 13:26:18;;;;;;;5.20;2.55;;;14.20;47.50;;;;;;6212998;23;20008;-68
2021/05/07 13:28:44;;;;;;;4.05;2.10;;;14.20;47.20;;;;;;6213892;23;20000;-69
2021/05/07 13:31:09;;;;;;;3.45;2.10;;;14.40;47.60;;;;;;6213800;23;20004;-67
2021/05/07 13:33:35;;;;;;;2.13;1.83;;;14.60;44.50;;;;;;6211176;23;20428;-68
2021/05/07 13:36:01;;;;;;;3.42;2.15;;;14.80;44.70;;;;;;6214083;23;20104;-70
2021/05/07 13:38:26;;;;;;;8.70;2.30;;;15.00;45.60;;;;;;6213620;23;20071;-68
2021/05/07 13:40:53;;;;;;;3.08;2.20;;;15.30;46.10;;;;;;6211340;23;20008;-67
2021/05/07 13:43:19;;;;;;;3.55;2.58;;;15.30;46.50;;;;;;6213446;23;20013;-66
2021/05/07 13:45:45;;;;;;;4.40;2.38;;;15.10;46.80;;;;;;6212644;23;20079;-67
2021/05/07 13:48:11;;;;;;;3.53;2.42;;;14.90;47.80;;;;;;6213708;23;20020;-67
2021/05/07 13:50:36;;;;;;;3.33;2.30;;;14.80;47.20;;;;;;6213828;23;20001;-69
2021/05/07 13:53:03;;;;;;;4.45;2.10;;;14.60;47.60;;;;;;6212460;23;20000;-66
2021/05/07 13:55:28;;;;;;;5.00;2.33;;;14.40;46.80;;;;;;6213667;23;20092;-67
2021/05/07 13:57:54;;;;;;;10.95;7.30;;;14.30;48.30;;;;;;6215847;23;20025;-67
2021/05/07 14:00:20;;;;;;;7.43;5.20;;;14.20;50.40;;;;;;6215077;23;20043;-67
2021/05/07 14:02:46;;;;;;;5.35;3.28;;;14.30;51.00;;;;;;6215346;23;19997;-66
2021/05/07 14:05:11;;;;;;;4.00;2.95;;;14.40;51.10;;;;;;6214241;23;20425;-67
2021/05/07 14:07:37;;;;;;;3.75;2.88;;;14.40;51.90;;;;;;6214659;23;20421;-67
2021/05/07 14:10:04;;;;;;;4.32;2.72;;;14.50;52.20;;;;;;6215499;23;20055;-69
2021/05/07 14:12:30;;;;;;;4.05;2.80;;;14.50;52.00;;;;;;6216124;23;20055;-66
2021/05/07 14:14:55;;;;;;;5.25;2.60;;;14.60;51.30;;;;;;6215012;23;20017;-66
2021/05/07 14:17:21;;;;;;;3.75;2.78;;;14.60;51.20;;;;;;6214601;23;20024;-66
2021/05/07 14:19:47;;;;;;;5.45;3.50;;;14.70;52.50;;;;;;6215050;23;20047;-70
2021/05/07 14:22:12;;;;;;;4.60;3.40;;;14.90;53.10;;;;;;6214910;23;20484;-68
2021/05/07 14:24:38;;;;;;;7.45;3.90;;;15.00;52.90;;;;;;6215339;23;20369;-67
2021/05/07 14:27:04;;;;;;;5.28;3.75;;;14.90;52.90;;;;;;6215480;23;20031;-67
2021/05/07 14:29:30;;;;;;;5.40;3.25;;;14.80;54.10;;;;;;6215575;23;20047;-67
2021/05/07 14:31:56;;;;;;;5.43;3.25;;;14.70;54.20;;;;;;6215552;23;20005;-67
2021/05/07 14:34:22;;;;;;;6.43;3.55;;;14.60;54.20;;;;;;6215030;23;20436;-68
2021/05/07 14:36:48;;;;;;;6.28;3.30;;;14.80;54.50;;;;;;6214742;23;20079;-66
2021/05/07 14:39:13;;;;;;;4.53;2.95;;;14.80;53.60;;;;;;6213769;23;20350;-70
2021/05/07 14:41:39;;;;;;;5.63;3.30;;;14.70;53.90;;;;;;6213968;23;20012;-69
2021/05/07 14:44:07;;;;;;;4.32;3.20;;;14.60;53.60;;;;;;6214783;23;20443;-73
2021/05/07 14:46:33;;;;;;;8.75;3.53;;;14.40;53.30;;;;;;6215436;23;20432;-71
2021/05/07 14:48:59;;;;;;;4.45;3.30;;;14.30;54.20;;;;;;6213098;23;20000;-75
2021/05/07 14:51:24;;;;;;;5.25;3.10;;;14.40;54.50;;;;;;6214315;23;20106;-68
2021/05/07 14:53:50;;;;;;;5.45;3.42;;;14.60;53.10;;;;;;6215198;23;20476;-71
2021/05/07 14:56:15;;;;;;;6.10;3.50;;;14.60;53.60;;;;;;6212869;23;20612;-69
2021/05/07 14:58:41;;;;;;;7.93;4.10;;;14.90;54.10;;;;;;6213576;23;20001;-67
2021/05/07 15:01:07;;;;;;;6.85;3.17;;;15.10;53.30;;;;;;6213873;23;20001;-69
2021/05/07 15:03:32;;;;;;;4.20;3.30;;;15.30;53.80;;;;;;6214067;23;20034;-73
2021/05/07 15:06:00;;;;;;;5.82;3.15;;;15.30;52.80;;;;;;6214507;23;20056;-66
2021/05/07 15:08:25;;;;;;;4.93;2.92;;;15.40;53.00;;;;;;6215320;23;20005;-67
2021/05/07 15:10:52;;;;;;;4.10;2.70;;;15.50;51.90;;;;;;6214268;23;20055;-71
2021/05/07 15:13:18;;;;;;;6.00;3.28;;;15.20;51.20;;;;;;6214933;23;20425;-69
2021/05/07 15:15:46;;;;;;;17.02;11.80;;;14.90;51.10;;;;;;6215116;23;20142;-69
2021/05/07 15:18:12;;;;;;;30.33;20.42;;;14.60;52.00;;;;;;6214439;23;20001;-65
2021/05/07 15:20:37;;;;;;;14.75;7.78;;;14.50;52.00;;;;;;6214810;23;20011;-67
2021/05/07 15:23:03;;;;;;;19.05;11.90;;;14.60;52.70;;;;;;6213260;23;20006;-66
2021/05/07 15:25:29;;;;;;;9.68;5.95;;;14.50;52.60;;;;;;6214473;23;20414;-72
2021/05/07 15:27:55;;;;;;;8.38;4.35;;;14.40;51.30;;;;;;6212626;23;20084;-67
2021/05/07 15:30:20;;;;;;;16.38;11.02;;;14.10;50.80;;;;;;6213613;23;20009;-69
2021/05/07 15:32:46;;;;;;;15.07;10.05;;;13.90;52.10;;;;;;6212650;23;20001;-69
2021/05/07 15:35:13;;;;;;;9.10;6.00;;;13.80;52.80;;;;;;6214611;23;20016;-72
2021/05/07 15:37:40;;;;;;;7.00;4.47;;;13.60;51.90;;;;;;6214690;23;20349;-69
2021/05/07 15:40:07;;;;;;;5.60;3.53;;;13.50;52.20;;;;;;6214053;23;20361;-70
2021/05/07 15:42:33;;;;;;;5.05;3.00;;;13.40;53.10;;;;;;6214775;23;20012;-73
2021/05/07 15:44:58;;;;;;;4.85;3.20;;;13.30;53.70;;;;;;6212929;23;20460;-68
2021/05/07 15:47:24;;;;;;;8.40;5.65;;;13.30;54.10;;;;;;6212884;23;20004;-72
2021/05/07 15:49:57;;;;;;;17.73;10.68;;;13.40;53.80;;;;;;6214820;23;20001;-71
2021/05/07 15:52:22;;;;;;;10.27;5.85;;;13.70;53.50;;;;;;6214273;23;20447;-70
2021/05/07 15:54:50;;;;;;;9.75;6.57;;;13.90;53.00;;;;;;6214575;23;20001;-71
2021/05/07 15:57:16;;;;;;;9.90;6.45;;;14.30;52.60;;;;;;6214441;23;20005;-73
2021/05/07 15:59:41;;;;;;;5.63;3.60;;;14.40;50.40;;;;;;6212459;23;20043;-70
2021/05/07 16:02:07;;;;;;;4.35;3.28;;;14.50;49.70;;;;;;6214709;23;20071;-77
2021/05/07 16:04:33;;;;;;;8.32;3.53;;;14.40;49.70;;;;;;6215114;23;20011;-68
2021/05/07 16:06:58;;;;;;;6.25;4.18;;;14.40;49.70;;;;;;6212550;23;20036;-78
2021/05/07 16:09:24;;;;;;;3.88;2.92;;;14.30;49.80;;;;;;6214670;23;19996;-69
2021/05/07 16:11:50;;;;;;;4.43;3.08;;;14.20;50.30;;;;;;6213359;23;20008;-74
2021/05/07 16:14:15;;;;;;;3.70;2.67;;;14.00;51.10;;;;;;6213737;23;20004;-73
2021/05/07 16:16:41;;;;;;;4.18;2.83;;;13.90;51.00;;;;;;6214891;23;20012;-79
2021/05/07 16:19:08;;;;;;;4.60;2.70;;;14.10;50.90;;;;;;6212949;23;20004;-70
2021/05/07 16:21:35;;;;;;;8.65;4.35;;;14.20;50.60;;;;;;6214095;23;20008;-80
2021/05/07 16:24:02;;;;;;;5.90;3.45;;;15.00;50.10;;;;;;6214061;23;20005;-76
2021/05/07 16:26:28;;;;;;;6.30;3.65;;;16.00;48.90;;;;;;6213140;23;20012;-75
2021/05/07 16:28:53;;;;;;;8.07;3.40;;;16.80;47.90;;;;;;6212511;23;20005;-73
2021/05/07 16:31:20;;;;;;;5.00;3.08;;;17.50;45.80;;;;;;6212975;23;20000;-68
2021/05/07 16:33:45;;;;;;;7.28;4.00;;;17.40;45.90;;;;;;6210756;23;20332;-70
2021/05/07 16:36:11;;;;;;;8.68;5.10;;;16.60;47.00;;;;;;6210927;23;20043;-70
2021/05/07 16:41:03;;;;;;;6.43;4.38;;;15.10;49.90;;;;;;6213711;23;20364;-69
2021/05/07 16:43:29;;;;;;;4.38;3.35;;;14.90;51.60;;;;;;6212638;23;20017;-71
2021/05/07 16:45:54;;;;;;;5.65;3.42;;;15.50;51.20;;;;;;6214082;23;20448;-68
2021/05/07 16:48:20;;;;;;;4.15;2.95;;;15.90;50.10;;;;;;6213542;23;19997;-69
2021/05/07 16:50:45;;;;;;;3.17;2.40;;;16.80;48.30;;;;;;6213164;23;20007;-71
2021/05/07 16:53:11;;;;;;;5.20;2.40;;;17.60;46.40;;;;;;6213709;23;20083;-70
2021/05/07 16:55:37;;;;;;;4.47;2.72;;;18.20;44.70;;;;;;6212883;23;20452;-68
2021/05/07 16:58:03;;;;;;;4.43;2.92;;;18.30;43.00;;;;;;6213747;23;20083;-69
2021/05/07 17:00:28;;;;;;;8.20;4.55;;;17.60;44.20;;;;;;6214240;23;20008;-67
2021/05/07 17:02:54;;;;;;;21.00;13.55;;;16.50;45.50;;;;;;6212704;23;20008;-67
2021/05/07 17:05:20;;;;;;;10.43;7.13;;;15.50;47.60;;;;;;6214002;23;20042;-64
2021/05/07 17:07:45;;;;;;;6.80;5.22;;;14.80;48.70;;;;;;6210279;23;20008;-71
2021/05/07 17:10:11;;;;;;;7.20;3.92;;;14.90;49.40;;;;;;6210883;23;20084;-72
2021/05/07 17:12:37;;;;;;;4.32;2.70;;;15.60;48.70;;;;;;6212396;23;20005;-73
2021/05/07 17:15:04;;;;;;;4.18;2.45;;;16.60;47.20;;;;;;6213859;23;20467;-73
2021/05/07 17:17:31;;;;;;;4.35;2.20;;;17.40;45.60;;;;;;6213535;23;20422;-71
2021/05/07 17:19:58;;;;;;;3.38;2.00;;;18.20;44.50;;;;;;6214172;23;20001;-72
2021/05/07 17:22:24;;;;;;;3.58;1.83;;;18.70;42.40;;;;;;6212933;23;20008;-72
2021/05/07 17:24:49;;;;;;;2.30;1.83;;;18.60;42.00;;;;;;6211695;23;19996;-72
2021/05/07 17:27:15;;;;;;;2.75;1.80;;;18.50;41.90;;;;;;6211812;23;20071;-75
2021/05/07 17:29:41;;;;;;;1.83;1.60;;;18.50;41.60;;;;;;6212119;23;20079;-74
2021/05/07 17:32:06;;;;;;;3.30;1.98;;;18.60;41.40;;;;;;6213224;23;20079;-84
2021/05/07 17:34:32;;;;;;;3.88;2.25;;;18.70;41.50;;;;;;6214348;23;20008;-73
2021/05/07 17:36:57;;;;;;;2.83;2.20;;;18.70;40.60;;;;;;6214393;23;20008;-86
2021/05/07 17:39:23;;;;;;;3.60;1.98;;;18.50;41.50;;;;;;6213997;23;20005;-76
2021/05/07 17:41:49;;;;;;;3.33;1.92;;;18.30;41.10;;;;;;6213924;23;20004;-76
2021/05/07 17:44:14;;;;;;;5.22;2.20;;;18.20;41.50;;;;;;6212988;23;20437;-72
2021/05/07 17:46:40;;;;;;;4.82;2.85;;;18.10;41.30;;;;;;6211203;23;20473;-73
2021/05/07 17:49:09;;;;;;;3.53;2.35;;;17.90;40.40;;;;;;6214397;23;20004;-86
2021/05/07 17:51:36;;;;;;;3.55;2.05;;;17.50;41.20;;;;;;6212513;23;19997;-84
2021/05/07 17:54:02;;;;;;;4.28;2.50;;;16.90;43.00;;;;;;6211841;23;20484;-74
2021/05/07 17:56:28;;;;;;;4.07;2.40;;;16.20;44.30;;;;;;6212998;23;20449;-76
2021/05/07 17:58:53;;;;;;;5.20;2.50;;;15.40;45.60;;;;;;6208067;23;20024;-82
2021/05/07 18:01:19;;;;;;;4.45;2.78;;;14.70;47.30;;;;;;6208537;23;20005;-72
2021/05/07 18:03:44;;;;;;;4.60;3.35;;;14.10;49.20;;;;;;6209110;23;20007;-74
2021/05/07 18:06:10;;;;;;;6.43;2.90;;;13.70;50.50;;;;;;6209547;23;20009;-72
2021/05/07 18:08:36;;;;;;;9.57;6.38;;;13.30;51.70;;;;;;6207941;23;20005;-73
2021/05/07 18:11:02;;;;;;;15.05;10.68;;;13.00;52.00;;;;;;6209601;23;20004;-71
2021/05/07 18:13:29;;;;;;;17.38;11.63;;;12.60;53.10;;;;;;6209173;23;20007;-71
2021/05/07 18:15:54;;;;;;;26.42;16.15;;;12.30;53.90;;;;;;6207232;23;20074;-71
2021/05/07 18:18:20;;;;;;;16.65;11.10;;;12.10;55.00;;;;;;6209827;23;19997;-71
2021/05/07 18:20:45;;;;;;;23.70;14.40;;;11.90;55.50;;;;;;6209125;23;20012;-71
2021/05/07 18:23:11;;;;;;;25.65;16.13;;;11.70;55.80;;;;;;6207911;23;20001;-74
2021/05/07 18:25:37;;;;;;;18.35;11.85;;;11.50;56.70;;;;;;6209801;23;20358;-80
2021/05/07 18:28:02;;;;;;;33.40;18.65;;;11.30;57.60;;;;;;6206821;23;20005;-73
2021/05/07 18:30:28;;;;;;;15.52;8.30;;;11.20;58.00;;;;;;6209591;23;20015;-73
2021/05/07 18:32:54;;;;;;;11.57;7.47;;;11.10;58.80;;;;;;6207789;23;20032;-72
2021/05/07 18:35:20;;;;;;;8.70;5.18;;;11.00;59.00;;;;;;6207403;23;20437;-74
2021/05/07 18:37:47;;;;;;;7.07;4.57;;;11.00;59.60;;;;;;6208966;23;20016;-73
2021/05/07 18:40:13;;;;;;;8.13;3.55;;;10.90;60.30;;;;;;6207433;23;20005;-74
2021/05/07 18:42:40;;;;;;;4.05;3.30;;;10.90;60.60;;;;;;6208710;23;20472;-73
2021/05/07 18:45:07;;;;;;;7.57;5.18;;;10.80;61.00;;;;;;6210848;23;20005;-71
2021/05/07 18:47:33;;;;;;;20.08;12.55;;;10.70;61.70;;;;;;6209858;23;20012;-73
2021/05/07 18:49:58;;;;;;;28.85;17.05;;;10.60;62.90;;;;;;6210027;23;20051;-69
2021/05/07 18:52:25;;;;;;;30.15;19.23;;;10.60;63.80;;;;;;6211824;23;20008;-71
2021/05/07 18:54:52;;;;;;;14.73;10.15;;;10.50;65.20;;;;;;6209670;23;20005;-73
2021/05/07 18:57:18;;;;;;;9.57;6.28;;;10.40;65.30;;;;;;6208834;23;20005;-71
2021/05/07 18:59:43;;;;;;;19.25;12.35;;;10.30;66.30;;;;;;6209330;23;20035;-72
2021/05/07 19:02:09;;;;;;;28.27;16.20;;;10.20;66.20;;;;;;6208622;23;20008;-73
2021/05/07 19:04:37;;;;;;;19.98;11.95;;;10.10;66.60;;;;;;6209374;23;20437;-72
2021/05/07 19:07:04;;;;;;;10.38;6.50;;;10.10;66.70;;;;;;6210006;23;20338;-70
2021/05/07 19:09:29;;;;;;;7.22;4.10;;;9.90;67.10;;;;;;6210644;23;20434;-69
2021/05/07 19:11:55;;;;;;;5.60;3.60;;;9.90;67.30;;;;;;6209657;23;20005;-70
2021/05/07 19:14:20;;;;;;;6.93;2.92;;;9.80;67.90;;;;;;6209526;23;20000;-72
2021/05/07 19:16:48;;;;;;;4.05;3.30;;;9.80;68.90;;;;;;6208850;23;20075;-72
2021/05/07 19:19:13;;;;;;;5.25;3.40;;;9.70;69.60;;;;;;6209246;23;20564;-72
2021/05/07 19:21:39;;;;;;;6.57;3.30;;;9.60;70.30;;;;;;6210925;23;20009;-69
2021/05/07 19:24:05;;;;;;;4.15;3.08;;;9.60;70.30;;;;;;6208575;23;20043;-70
2021/05/07 19:26:31;;;;;;;3.45;3.15;;;9.50;69.90;;;;;;6208907;23;20051;-70
2021/05/07 19:28:57;;;;;;;4.78;3.00;;;9.40;70.00;;;;;;6210822;23;20012;-71
2021/05/07 19:31:23;;;;;;;6.22;3.65;;;9.40;70.40;;;;;;6208627;23;20016;-72
2021/05/07 19:33:49;;;;;;;3.70;3.17;;;9.30;71.50;;;;;;6209112;23;20008;-70
2021/05/07 19:36:17;;;;;;;4.93;3.80;;;9.20;71.40;;;;;;6211157;23;20016;-72
2021/05/07 19:38:43;;;;;;;8.63;4.50;;;9.20;71.70;;;;;;6209826;23;20008;-71
2021/05/07 19:41:08;;;;;;;6.68;4.10;;;9.10;72.20;;;;;;6210808;23;20005;-72
2021/05/07 19:43:34;;;;;;;9.50;4.55;;;9.10;73.00;;;;;;6208879;23;20074;-71
2021/05/07 19:46:01;;;;;;;9.45;5.00;;;9.10;73.60;;;;;;6208446;23;20565;-71
2021/05/07 19:48:28;;;;;;;7.82;4.47;;;9.00;73.90;;;;;;6211190;23;20028;-72
2021/05/07 19:50:53;;;;;;;7.60;4.28;;;9.00;73.60;;;;;;6208918;23;20019;-72
2021/05/07 19:53:19;;;;;;;7.50;4.40;;;9.00;74.30;;;;;;6209758;23;20095;-72
2021/05/07 19:55:44;;;;;;;6.35;4.20;;;8.90;74.60;;;;;;6210550;23;20091;-71
2021/05/07 19:58:10;;;;;;;8.52;4.32;;;8.80;74.20;;;;;;6210840;23;19997;-71
2021/05/07 20:00:36;;;;;;;5.10;3.80;;;8.80;74.60;;;;;;6208647;23;20460;-67
2021/05/07 20:03:01;;;;;;;7.60;4.45;;;8.80;74.60;;;;;;6210417;23;20140;-74
2021/05/07 20:05:27;;;;;;;5.30;3.53;;;8.70;75.10;;;;;;6210672;23;20009;-70